Terminal Aerodrome Forecast
Issued by NWS

Current Version | Previous Version | Text Only | Print | Product List | Glossary On
Versions: 1 2 3 4 5 6 7 8 9 10 11 12 13 14 15 16 17 18 19 20 21 22
130
FTUS43 KGRR 172341
TAFJXN
TAF
KJXN 172341Z 1800/1824 26010G18KT 4SM BR OVC004
     FM180300 26008KT 2SM BR OVC003
     FM181400 27007KT 1 1/2SM BR OVC003
     FM181600 26009KT 2SM BR OVC003
     FM181700 26009KT 4SM BR OVC007
     FM181800 24008KT P6SM BKN015=

USA.gov is the U.S. government's official web portal to all federal, state and local government web resources and services.